Time;durP1;ratioP1;P1;durP2;ratioP2;P2;SDS_P1;SDS_P2;PMS_P1;PMS_P2;Temp;Humidity;BMP_temperature;BMP_pressure;BME280_temperature;BME280_humidity;BME280_pressure;Samples;Min_cycle;Max_cycle;Signal;HPM_P1;HPM_P2
2022/08/23 00:02:08;;;;;;;24.30;6.30;;;;;;;22.33;52.19;99190.94;1751513;82;21465;-43
2022/08/23 00:04:39;;;;;;;27.22;6.78;;;;;;;22.31;52.28;99190.63;1751624;82;21076;-43
2022/08/23 00:07:10;;;;;;;31.33;7.00;;;;;;;22.28;52.42;99191.48;1751309;82;21124;-43
2022/08/23 00:09:37;;;;;;;27.55;7.35;;;;;;;22.24;52.49;99192.21;1751416;82;21005;-43
2022/08/23 00:12:19;;;;;;;37.90;7.53;;;;;;;22.23;52.71;99190.66;1751201;82;21038;-43
2022/08/23 00:14:52;;;;;;;30.95;7.33;;;;;;;22.20;52.90;99197.85;1751345;81;21038;-43
2022/08/23 00:17:19;;;;;;;29.02;6.97;;;;;;;22.16;52.92;99196.41;1751802;82;21013;-43
2022/08/23 00:19:48;;;;;;;29.63;7.17;;;;;;;22.14;52.99;99198.84;1751382;82;21239;-43
2022/08/23 00:22:16;;;;;;;19.90;6.42;;;;;;;22.12;53.03;99193.00;1751859;82;21049;-43
2022/08/23 00:24:43;;;;;;;24.43;6.55;;;;;;;22.09;53.02;99196.80;1751511;82;20990;-43
2022/08/23 00:27:13;;;;;;;24.10;7.70;;;;;;;22.07;53.02;99195.70;1751615;82;21014;-43
2022/08/23 00:29:50;;;;;;;20.80;5.40;;;;;;;22.03;52.89;99194.41;1751435;82;21006;-43
2022/08/23 00:32:28;;;;;;;25.57;6.22;;;;;;;22.02;52.92;99202.55;1751671;82;21365;-43
2022/08/23 00:34:56;;;;;;;24.05;6.83;;;;;;;21.99;53.02;99201.25;1750962;81;21403;-43
2022/08/23 00:37:23;;;;;;;33.02;7.00;;;;;;;21.95;53.20;99197.22;1751272;82;21076;-43
2022/08/23 00:39:51;;;;;;;25.08;6.97;;;;;;;21.92;53.24;99200.06;1751134;82;21592;-43
2022/08/23 00:48:40;;;;;;;24.77;7.42;;;;;;;21.83;53.63;99209.00;1751486;82;21001;-42
2022/08/23 00:51:17;;;;;;;27.55;7.30;;;;;;;21.83;53.77;99208.22;1751650;82;21002;-43
2022/08/23 00:53:54;;;;;;;18.40;6.42;;;;;;;21.82;53.72;99206.67;1751491;82;21025;-42
2022/08/23 00:56:23;;;;;;;23.12;6.80;;;;;;;21.78;53.80;99204.02;1743453;81;21090;-43
2022/08/23 00:58:50;;;;;;;20.23;6.83;;;;;;;21.75;53.82;99207.64;1728316;83;21200;-42
2022/08/23 01:01:17;;;;;;;21.93;6.37;;;;;;;21.73;53.94;99202.41;1727935;83;21254;-43
2022/08/23 01:03:52;;;;;;;24.35;6.60;;;;;;;21.70;54.02;99202.66;1728150;83;21014;-43
2022/08/23 01:06:30;;;;;;;23.65;6.85;;;;;;;21.68;53.95;99207.26;1727990;83;21563;-42
2022/08/23 01:09:01;;;;;;;26.50;6.55;;;;;;;21.66;54.02;99193.11;1727941;83;21111;-42
2022/08/23 01:11:36;;;;;;;20.95;6.33;;;;;;;21.62;53.94;99192.45;1707135;83;21121;-42
2022/08/23 01:14:10;;;;;;;26.12;6.83;;;;;;;21.61;53.90;99192.87;1727862;83;21039;-43
2022/08/23 01:16:58;;;;;;;26.02;6.92;;;;;;;21.57;53.82;99206.00;1728182;82;21533;-43
2022/08/23 01:19:35;;;;;;;23.85;6.62;;;;;;;21.54;53.79;99200.73;1723617;83;21517;-43
2022/08/23 01:22:16;;;;;;;22.77;6.15;;;;;;;21.49;53.80;99195.01;1728436;83;21046;-43
2022/08/23 01:24:43;;;;;;;22.67;6.12;;;;;;;21.48;53.83;99200.35;1728178;83;21125;-43
2022/08/23 01:27:11;;;;;;;19.00;5.80;;;;;;;21.45;53.84;99197.06;1728191;83;21011;-43
2022/08/23 01:29:39;;;;;;;21.05;5.80;;;;;;;21.44;53.91;99199.67;1728393;83;21026;-43
2022/08/23 01:32:08;;;;;;;21.27;5.72;;;;;;;21.43;53.90;99199.50;1728352;83;21039;-42
2022/08/23 01:34:37;;;;;;;;;;;;;;;21.43;53.97;99204.42;1730916;83;21074;-42
2022/08/23 01:37:06;;;;;;;19.75;6.12;;;;;;;21.41;53.85;99201.91;1728046;83;21132;-43
2022/08/23 01:39:35;;;;;;;19.70;6.47;;;;;;;21.31;54.02;99201.59;1728188;83;21536;-42
2022/08/23 01:42:05;;;;;;;18.75;6.30;;;;;;;21.31;53.99;99204.35;1727995;83;20982;-42
2022/08/23 01:44:32;;;;;;;26.12;6.15;;;;;;;21.30;53.89;99206.96;1728333;83;21010;-43
2022/08/23 01:47:00;;;;;;;22.95;6.87;;;;;;;21.31;53.83;99209.87;1727887;83;21042;-43
2022/08/23 01:49:29;;;;;;;20.50;5.75;;;;;;;21.29;53.84;99217.82;1727943;83;21053;-43
2022/08/23 01:51:56;;;;;;;21.27;6.37;;;;;;;21.25;53.93;99215.91;1727896;83;21062;-43
2022/08/23 01:54:23;;;;;;;22.25;6.45;;;;;;;21.24;53.92;99214.38;1727993;83;21014;-43
2022/08/23 01:56:50;;;;;;;24.77;6.28;;;;;;;21.25;53.86;99222.05;1727879;81;20939;-43
2022/08/23 01:59:17;;;;;;;23.83;6.47;;;;;;;21.23;53.88;99214.81;1727983;83;21071;-43
2022/08/23 02:01:46;;;;;;;19.10;6.03;;;;;;;21.22;54.04;99215.41;1728052;82;21322;-43
2022/08/23 02:04:13;;;;;;;22.17;6.70;;;;;;;21.22;54.07;99207.14;1728191;83;21486;-42
2022/08/23 02:06:41;;;;;;;20.20;6.08;;;;;;;21.20;54.17;99215.06;1727977;83;21019;-43
2022/08/23 02:09:10;;;;;;;18.83;5.73;;;;;;;21.19;54.23;99208.63;1728199;83;21003;-42
2022/08/23 02:11:40;;;;;;;21.77;5.95;;;;;;;21.16;54.30;99208.87;1727978;83;21059;-42
2022/08/23 02:14:12;;;;;;;24.45;5.92;;;;;;;21.15;54.32;99219.75;1728057;83;21213;-43
2022/08/23 02:16:47;;;;;;;20.20;5.53;;;;;;;21.11;54.29;99215.48;1727140;82;20963;-43
2022/08/23 02:19:14;;;;;;;17.45;5.97;;;;;;;21.05;54.41;99211.13;1728371;83;21022;-42
2022/08/23 02:21:41;;;;;;;20.75;6.25;;;;;;;21.01;54.52;99217.31;1728031;83;20994;-43
2022/08/23 02:24:14;;;;;;;21.20;6.12;;;;;;;20.98;54.52;99220.16;1727884;82;21300;-42
2022/08/23 02:26:45;;;;;;;18.15;5.87;;;;;;;20.94;54.55;99216.13;1728263;83;21105;-43
2022/08/23 02:29:14;;;;;;;17.65;6.12;;;;;;;20.90;54.57;99227.06;1728364;83;20943;-43
2022/08/23 02:31:43;;;;;;;19.48;5.90;;;;;;;20.87;54.70;99223.18;1728287;83;21090;-42
2022/08/23 02:34:14;;;;;;;24.02;6.78;;;;;;;20.86;54.67;99229.92;1728257;83;20979;-42
2022/08/23 02:36:42;;;;;;;17.90;5.75;;;;;;;20.85;54.71;99231.72;1728092;82;21039;-42
2022/08/23 02:39:09;;;;;;;16.60;6.05;;;;;;;20.82;54.66;99227.83;1728374;83;21105;-42
2022/08/23 02:41:38;;;;;;;15.23;5.45;;;;;;;20.82;54.53;99226.45;1728171;83;21002;-42
2022/08/23 02:44:06;;;;;;;20.82;5.70;;;;;;;20.81;54.44;99228.46;1727889;83;21536;-43
2022/08/23 02:46:35;;;;;;;18.27;5.70;;;;;;;20.80;54.25;99224.15;1727880;83;21613;-42
2022/08/23 02:49:03;;;;;;;16.75;5.60;;;;;;;20.79;54.09;99224.57;1728016;83;21118;-43
2022/08/23 02:51:30;;;;;;;15.18;5.55;;;;;;;20.79;54.01;99225.95;1727931;83;21141;-42
2022/08/23 02:53:57;;;;;;;28.07;5.97;;;;;;;20.78;54.02;99229.91;1723012;83;21059;-43
2022/08/23 02:56:25;;;;;;;15.03;5.22;;;;;;;20.77;54.00;99227.75;1729279;81;20965;-43
2022/08/23 02:58:51;;;;;;;19.27;6.00;;;;;;;20.76;54.01;99232.33;1743395;81;20927;-42
2022/08/23 03:01:27;;;;;;;20.12;5.12;;;;;;;20.77;53.96;99239.37;1743410;82;21033;-42
2022/08/23 03:03:56;;;;;;;19.05;5.67;;;;;;;20.75;53.93;99238.45;1743339;82;21223;-42
2022/08/23 03:06:24;;;;;;;14.63;5.70;;;;;;;20.73;53.95;99241.44;1743409;82;20950;-43
2022/08/23 03:08:53;;;;;;;20.30;6.45;;;;;;;20.71;54.01;99248.00;1743174;82;20938;-43
2022/08/23 03:11:20;;;;;;;17.37;5.22;;;;;;;20.68;53.98;99251.59;1707954;84;21012;-43
2022/08/23 03:13:52;;;;;;;16.82;6.22;;;;;;;20.66;54.04;99248.52;1707710;84;21008;-42
2022/08/23 03:16:19;;;;;;;20.15;5.60;;;;;;;20.64;54.09;99250.31;1707927;84;21756;-42
2022/08/23 03:18:47;;;;;;;22.22;6.05;;;;;;;20.63;54.10;99255.64;1743302;82;20977;-42
2022/08/23 03:21:14;;;;;;;11.08;5.20;;;;;;;20.61;54.22;99251.18;1707948;84;21045;-42
2022/08/23 03:23:42;;;;;;;16.37;5.62;;;;;;;20.60;54.17;99251.60;1707522;84;21557;-43
2022/08/23 03:26:10;;;;;;;16.17;6.08;;;;;;;20.59;54.16;99263.22;1707666;84;21020;-42
2022/08/23 03:28:39;;;;;;;13.38;5.50;;;;;;;20.59;54.01;99261.84;1707773;84;21085;-42
2022/08/23 03:31:07;;;;;;;17.87;5.92;;;;;;;20.60;53.97;99262.62;1707869;83;20985;-42
2022/08/23 03:33:38;;;;;;;17.27;5.28;;;;;;;20.61;53.88;99266.33;1707367;84;20902;-42
2022/08/23 03:36:07;;;;;;;21.90;5.47;;;;;;;20.61;53.83;99271.84;1743485;81;21630;-42
2022/08/23 03:38:34;;;;;;;15.93;5.20;;;;;;;20.62;53.69;99272.62;1743983;81;21504;-42
2022/08/23 03:41:03;;;;;;;17.57;5.30;;;;;;;20.61;53.71;99277.95;1743597;82;21274;-42
2022/08/23 03:43:31;;;;;;;17.60;4.90;;;;;;;20.61;53.82;99280.70;1743605;82;20997;-42
2022/08/23 03:45:58;;;;;;;18.75;5.37;;;;;;;20.60;53.75;99286.03;1743589;82;20954;-42
2022/08/23 03:48:26;;;;;;;13.30;5.15;;;;;;;20.59;53.76;99279.74;1707907;83;21017;-42
2022/08/23 03:50:53;;;;;;;19.10;5.50;;;;;;;20.61;53.67;99291.13;1743500;82;21509;-42
2022/08/23 03:53:22;;;;;;;19.20;5.00;;;;;;;20.63;53.45;99291.45;1707813;84;21153;-43
2022/08/23 03:55:50;;;;;;;11.22;4.92;;;;;;;20.66;53.30;99291.22;1686327;84;21516;-42
2022/08/23 03:58:19;;;;;;;14.15;4.75;;;;;;;20.70;53.16;99298.79;1707817;83;20982;-42
2022/08/23 04:00:46;;;;;;;13.88;5.45;;;;;;;20.70;53.00;99294.66;1707747;84;21538;-42
2022/08/23 04:03:14;;;;;;;10.60;4.50;;;;;;;20.72;52.88;99304.66;1743348;82;20946;-42
2022/08/23 04:05:43;;;;;;;19.75;4.50;;;;;;;20.74;52.62;99293.97;1701242;84;21906;-42
2022/08/23 04:08:13;;;;;;;12.07;4.67;;;;;;;20.75;52.59;99295.52;1707408;83;21037;-42
2022/08/23 04:10:42;;;;;;;16.20;4.73;;;;;;;20.75;52.61;99299.66;1743488;82;20998;-42
2022/08/23 04:13:10;;;;;;;15.10;5.00;;;;;;;20.76;52.41;99298.45;1743422;81;20982;-42
2022/08/23 04:15:39;;;;;;;13.88;4.30;;;;;;;20.78;52.41;99300.94;1707586;84;21001;-43
2022/08/23 04:18:06;;;;;;;13.25;4.58;;;;;;;20.81;52.38;99298.73;1707820;84;21111;-42
2022/08/23 04:20:33;;;;;;;12.07;4.58;;;;;;;20.86;52.27;99305.70;1707912;84;21471;-42
2022/08/23 04:23:02;;;;;;;16.00;4.40;;;;;;;20.89;52.14;99299.92;1707566;84;21589;-42
2022/08/23 04:25:32;;;;;;;17.40;4.83;;;;;;;20.93;52.08;99304.14;1707897;84;21091;-42
2022/08/23 04:27:59;;;;;;;12.75;4.55;;;;;;;21.02;51.99;99310.42;1743563;82;21037;-42
2022/08/23 04:30:27;;;;;;;16.32;4.20;;;;;;;21.07;51.78;99311.28;1707762;84;21139;-42
2022/08/23 04:32:54;;;;;;;9.20;4.03;;;;;;;21.11;51.45;99309.98;1732946;82;20969;-43
2022/08/23 04:35:22;;;;;;;19.87;4.80;;;;;;;21.12;51.22;99299.73;1743530;82;20954;-42
2022/08/23 04:37:49;;;;;;;15.43;4.70;;;;;;;21.22;51.01;99313.29;1743469;82;21092;-43
2022/08/23 04:43:03;;;;;;;14.25;4.08;;;;;;;21.35;50.58;99319.50;1743367;82;23146;-42
2022/08/23 04:45:31;;;;;;;11.97;4.05;;;;;;;21.38;50.34;99316.64;1733134;82;20953;-42
2022/08/23 04:47:59;;;;;;;14.28;4.35;;;;;;;21.41;50.14;99313.01;1743461;82;20994;-42
2022/08/23 04:50:28;;;;;;;11.83;4.37;;;;;;;21.45;50.01;99315.66;1707876;84;21081;-42
2022/08/23 04:53:17;;;;;;;17.67;3.90;;;;;;;21.50;50.07;99316.52;1743022;81;21009;-42
2022/08/23 04:55:45;;;;;;;12.13;4.30;;;;;;;21.53;49.94;99319.21;1743267;81;21474;-42
2022/08/23 04:58:13;;;;;;;16.65;4.42;;;;;;;21.58;49.89;99315.92;1743668;81;20967;-42
2022/08/23 05:00:42;;;;;;;20.35;4.37;;;;;;;21.64;49.71;99316.14;1743785;81;20998;-42
2022/08/23 05:03:09;;;;;;;17.37;4.60;;;;;;;21.70;49.51;99322.69;1707856;84;21555;-42
2022/08/23 05:05:37;;;;;;;15.72;4.45;;;;;;;21.74;49.45;99321.98;1707986;84;21045;-42
2022/08/23 05:08:06;;;;;;;12.07;4.33;;;;;;;21.81;49.15;99317.66;1743477;81;21137;-42
2022/08/23 05:10:33;;;;;;;17.75;4.45;;;;;;;21.86;48.98;99319.89;1743233;82;21510;-42
2022/08/23 05:13:02;;;;;;;15.48;4.40;;;;;;;21.93;48.71;99310.65;1707592;84;21633;-42
2022/08/23 05:15:29;;;;;;;15.45;4.58;;;;;;;22.01;48.77;99321.68;1707802;84;21441;-42
2022/08/23 05:17:58;;;;;;;16.70;4.23;;;;;;;22.09;48.62;99325.18;1707411;84;21029;-42
2022/08/23 05:20:25;;;;;;;15.65;4.33;;;;;;;22.18;48.50;99325.13;1707739;84;21286;-42
2022/08/23 05:22:53;;;;;;;15.00;4.22;;;;;;;22.26;48.20;99330.64;1707595;84;21083;-42
2022/08/23 05:25:48;;;;;;;19.10;4.70;;;;;;;22.33;47.92;99329.03;1707442;84;20993;-42
2022/08/23 05:27:58;;;;;;;20.92;4.72;;;;;;;22.40;47.87;99327.45;1741887;81;21018;-42
2022/08/23 05:30:25;;;;;;;17.37;4.78;;;;;;;22.48;48.07;99327.41;1707804;83;21009;-42
2022/08/23 05:32:52;;;;;;;14.50;4.35;;;;;;;22.57;47.85;99334.43;1707751;84;21547;-42
2022/08/23 05:35:20;;;;;;;16.77;4.58;;;;;;;22.67;47.59;99332.55;1743432;82;20916;-42
2022/08/23 05:37:48;;;;;;;15.35;4.80;;;;;;;22.76;47.49;99343.14;1707655;84;20969;-43
2022/08/23 05:40:15;;;;;;;19.48;5.45;;;;;;;22.87;47.36;99340.83;1707701;84;20973;-42
2022/08/23 05:42:44;;;;;;;25.10;5.45;;;;;;;22.98;47.29;99339.72;1706075;83;21032;-42
2022/08/23 05:45:11;;;;;;;23.90;4.80;;;;;;;23.09;47.05;99347.08;1707909;84;21574;-42
2022/08/23 05:47:39;;;;;;;16.62;5.35;;;;;;;23.18;46.73;99352.09;1743512;81;20998;-42
2022/08/23 05:50:09;;;;;;;24.77;4.92;;;;;;;23.28;46.77;99354.35;1704655;84;20925;-42
2022/08/23 05:52:37;;;;;;;27.90;5.92;;;;;;;23.40;46.39;99357.69;1743662;82;20973;-43
2022/08/23 05:55:06;;;;;;;23.67;4.78;;;;;;;23.49;45.78;99363.34;1743482;82;21021;-42
2022/08/23 05:57:42;;;;;;;29.45;5.45;;;;;;;23.57;45.93;99362.51;1746587;81;21194;-43
2022/08/23 06:00:14;;;;;;;23.75;5.00;;;;;;;23.65;45.37;99367.34;1756885;81;20969;-43
2022/08/23 06:02:49;;;;;;;29.07;6.03;;;;;;;23.71;45.09;99368.33;1756720;81;21032;-43
2022/08/23 06:05:18;;;;;;;27.48;5.70;;;;;;;23.78;44.93;99368.07;1757019;81;21488;-43
2022/08/23 06:07:48;;;;;;;33.05;6.22;;;;;;;23.87;44.82;99372.16;1720563;83;21083;-43
2022/08/23 06:10:15;;;;;;;29.87;6.65;;;;;;;23.94;44.83;99380.20;1720698;83;21194;-43
2022/08/23 06:12:46;;;;;;;26.85;6.05;;;;;;;23.99;44.49;99383.78;1720664;83;21007;-42
2022/08/23 06:15:14;;;;;;;25.62;5.95;;;;;;;24.02;44.48;99384.25;1694148;83;21015;-42
2022/08/23 06:17:41;;;;;;;23.62;6.25;;;;;;;24.07;44.26;99394.76;1720515;83;21028;-43
2022/08/23 06:20:10;;;;;;;24.05;5.50;;;;;;;24.14;44.48;99394.52;1720696;83;21035;-42
2022/08/23 06:22:38;;;;;;;28.52;6.72;;;;;;;24.20;44.40;99397.69;1717999;83;21717;-43
2022/08/23 06:25:08;;;;;;;32.88;6.50;;;;;;;24.27;43.93;99407.72;1720693;83;20964;-42
2022/08/23 06:27:40;;;;;;;25.90;6.08;;;;;;;24.28;44.01;99402.34;1718901;83;20964;-42
2022/08/23 06:30:09;;;;;;;30.48;6.67;;;;;;;24.31;43.64;99401.44;1720827;83;21021;-42
2022/08/23 06:32:36;;;;;;;30.85;7.17;;;;;;;24.32;43.64;99402.98;1720890;83;21075;-42
2022/08/23 06:35:22;;;;;;;37.03;6.75;;;;;;;24.33;43.68;99395.45;1720952;83;21141;-43
2022/08/23 06:38:07;;;;;;;32.58;6.65;;;;;;;24.35;43.74;99396.53;1719836;83;21550;-42
2022/08/23 06:40:51;;;;;;;31.85;5.90;;;;;;;24.38;43.55;99396.25;1720751;83;21558;-42
2022/08/23 06:43:25;;;;;;;31.77;6.42;;;;;;;24.39;43.48;99400.58;1720697;83;21059;-42
2022/08/23 06:45:54;;;;;;;;;;;;;;;24.42;43.62;99408.75;1721162;83;21041;-42
2022/08/23 06:48:22;;;;;;;32.45;6.97;;;;;;;24.46;43.73;99405.23;1702429;84;21241;-43
2022/08/23 06:50:49;;;;;;;29.42;6.20;;;;;;;24.41;43.84;99405.81;1702370;84;21009;-42
2022/08/23 06:53:26;;;;;;;38.70;7.40;;;;;;;24.48;43.73;99411.11;1702192;84;21097;-42
2022/08/23 06:55:59;;;;;;;35.73;6.83;;;;;;;24.58;43.69;99405.78;1698949;84;21102;-43
2022/08/23 06:58:33;;;;;;;42.53;7.55;;;;;;;24.68;44.03;99403.23;1668740;84;21477;-43
2022/08/23 07:01:29;;;;;;;34.45;7.50;;;;;;;24.79;43.52;99406.19;1697401;84;21160;-42
2022/08/23 07:03:59;;;;;;;34.00;7.75;;;;;;;24.91;43.91;99415.06;1698129;84;21033;-42
2022/08/23 07:06:45;;;;;;;47.30;8.40;;;;;;;25.03;43.14;99416.95;1707902;84;21571;-42
2022/08/23 07:09:12;;;;;;;49.67;9.38;;;;;;;25.12;42.60;99416.25;1707225;84;20981;-43
2022/08/23 07:11:40;;;;;;;50.95;9.10;;;;;;;25.19;42.34;99407.63;1707507;84;20998;-43
2022/08/23 07:14:11;;;;;;;60.98;9.33;;;;;;;25.28;41.54;99415.36;1707310;84;21279;-43
2022/08/23 07:16:42;;;;;;;54.08;9.40;;;;;;;25.37;41.89;99411.23;1707840;84;20962;-43
2022/08/23 07:19:10;;;;;;;46.05;8.63;;;;;;;25.47;41.63;99409.24;1707579;84;21504;-43
2022/08/23 07:21:37;;;;;;;44.60;9.10;;;;;;;25.58;41.67;99412.39;1707507;84;21046;-43
2022/08/23 07:24:05;;;;;;;60.05;10.18;;;;;;;25.69;41.93;99414.73;1707547;84;21105;-43
2022/08/23 07:26:33;;;;;;;42.25;9.70;;;;;;;25.81;41.60;99416.58;1707785;83;21085;-43
2022/08/23 07:29:01;;;;;;;55.50;9.98;;;;;;;25.91;41.24;99419.53;1707277;84;20986;-43
2022/08/23 07:31:30;;;;;;;55.48;10.38;;;;;;;26.01;41.06;99420.30;1678835;84;20977;-43
2022/08/23 07:34:01;;;;;;;64.03;10.50;;;;;;;26.09;40.98;99421.56;1679163;84;21002;-43
2022/08/23 07:36:30;;;;;;;58.13;10.35;;;;;;;26.17;40.85;99424.95;1707764;83;21101;-43
2022/08/23 07:38:57;;;;;;;54.35;9.78;;;;;;;26.24;40.99;99426.04;1707303;84;21254;-42
2022/08/23 07:41:30;;;;;;;55.12;10.23;;;;;;;26.35;40.89;99426.34;1707471;84;21584;-43
2022/08/23 07:44:01;;;;;;;82.67;11.05;;;;;;;26.45;40.10;99431.89;1707495;84;21046;-43
2022/08/23 07:46:30;;;;;;;65.12;10.90;;;;;;;26.51;39.68;99425.25;1707690;84;21037;-43
2022/08/23 07:48:58;;;;;;;62.83;12.10;;;;;;;26.56;39.58;99423.85;1707351;84;21101;-43
2022/08/23 07:51:28;;;;;;;67.50;11.33;;;;;;;26.61;39.44;99430.18;1712460;83;21862;-43
2022/08/23 07:53:55;;;;;;;75.52;12.07;;;;;;;26.68;39.73;99429.22;1712897;83;21493;-43
2022/08/23 07:56:23;;;;;;;58.45;11.43;;;;;;;26.77;39.56;99422.23;1712886;83;20981;-43
2022/08/23 07:58:54;;;;;;;57.25;10.95;;;;;;;26.91;39.41;99422.25;1708892;83;21560;-43
2022/08/23 08:01:33;;;;;;;57.78;11.70;;;;;;;27.03;39.44;99433.79;1640538;87;21069;-43
2022/08/23 08:04:01;;;;;;;60.00;11.40;;;;;;;27.17;38.83;99431.72;1743561;82;21122;-43
2022/08/23 08:06:40;;;;;;;66.90;12.58;;;;;;;27.28;38.85;99429.05;1743612;82;21146;-43
2022/08/23 08:09:09;;;;;;;66.60;12.10;;;;;;;27.39;38.12;99431.48;1743558;82;21045;-43
2022/08/23 08:13:39;;;;;;;78.65;12.73;;;;;;;27.59;37.90;99432.33;1779757;79;22579;-42
2022/08/23 08:16:07;;;;;;;74.35;13.00;;;;;;;27.59;37.80;99437.25;1739436;82;21021;-42
2022/08/23 08:18:37;;;;;;;74.75;12.53;;;;;;;27.69;37.36;99436.60;1739391;82;21908;-42
2022/08/23 08:21:06;;;;;;;;;;;;;;;27.74;37.57;99442.88;1738842;82;20970;-42
2022/08/23 08:23:38;;;;;;;69.62;12.05;;;;;;;27.82;37.63;99434.34;1736475;82;20125;-42
2022/08/23 08:26:16;;;;;;;80.97;12.13;;;;;;;27.79;37.73;99446.41;1736419;82;21535;-42
2022/08/23 08:28:45;;;;;;;71.85;13.88;;;;;;;27.89;37.98;99445.11;1738499;82;21029;-42
2022/08/23 08:31:13;;;;;;;79.87;12.35;;;;;;;27.97;37.66;99443.52;1739159;82;21144;-42
2022/08/23 08:33:40;;;;;;;75.08;12.98;;;;;;;28.08;37.63;99443.72;1739164;82;20978;-42
2022/08/23 08:36:08;;;;;;;75.60;12.45;;;;;;;28.23;37.38;99437.44;1739042;82;20931;-42
2022/08/23 08:38:39;;;;;;;80.10;14.70;;;;;;;28.35;37.17;99451.13;1739153;82;20990;-42
2022/08/23 08:41:18;;;;;;;62.58;12.40;;;;;;;28.47;37.01;99447.91;1739065;82;21081;-42
2022/08/23 08:44:06;;;;;;;64.12;12.00;;;;;;;28.57;36.98;99439.61;1739351;82;21120;-42
2022/08/23 08:46:46;;;;;;;61.45;12.95;;;;;;;28.68;36.37;99448.18;1739110;82;21521;-42
2022/08/23 08:49:19;;;;;;;66.80;11.83;;;;;;;28.70;36.26;99437.94;1739023;82;21454;-42
2022/08/23 08:51:54;;;;;;;67.22;12.82;;;;;;;28.73;36.04;99445.37;1738653;82;21544;-42
2022/08/23 08:54:25;;;;;;;83.78;13.40;;;;;;;28.74;36.09;99437.15;1739077;82;21046;-42
2022/08/23 08:56:55;;;;;;;61.33;11.88;;;;;;;28.76;36.15;99439.59;1738910;82;21221;-42
2022/08/23 08:59:28;;;;;;;69.12;12.10;;;;;;;28.81;35.96;99447.29;1739326;82;21046;-42
2022/08/23 09:01:56;;;;;;;78.22;13.32;;;;;;;28.88;36.28;99437.14;1739003;82;20972;-42
2022/08/23 09:04:25;;;;;;;70.57;12.33;;;;;;;28.99;36.06;99449.75;1719744;82;21528;-42
2022/08/23 09:07:16;;;;;;;70.42;13.10;;;;;;;29.10;36.08;99441.53;1739281;82;20983;-43
2022/08/23 09:09:54;;;;;;;74.62;12.63;;;;;;;29.22;35.91;99449.61;1739128;82;20895;-42
2022/08/23 09:12:39;;;;;;;79.67;13.80;;;;;;;29.32;35.49;99453.09;1724576;81;21552;-43
2022/08/23 09:15:34;;;;;;;83.85;13.53;;;;;;;29.40;35.33;99444.44;1754951;81;21485;-42
2022/08/23 09:18:11;;;;;;;82.50;14.63;;;;;;;29.45;34.94;99440.95;1753576;81;21035;-42
2022/08/23 09:20:40;;;;;;;78.02;14.23;;;;;;;29.43;34.78;99444.11;1753701;81;21088;-42
2022/08/23 09:23:24;;;;;;;78.83;14.97;;;;;;;29.40;34.78;99444.44;1752228;81;21270;-42
2022/08/23 09:26:01;;;;;;;89.70;15.48;;;;;;;29.46;34.73;99442.50;1751619;82;21033;-43
2022/08/23 09:28:35;;;;;;;85.62;14.60;;;;;;;29.55;34.91;99453.55;1751136;81;21015;-42
2022/08/23 09:31:04;;;;;;;96.65;15.60;;;;;;;29.68;34.80;99446.22;1751775;82;21466;-42
2022/08/23 09:33:44;;;;;;;90.45;16.80;;;;;;;29.82;35.05;99450.23;1751438;82;20986;-42
2022/08/23 09:36:19;;;;;;;76.75;15.25;;;;;;;29.94;34.67;99450.53;1749264;81;21180;-42
2022/08/23 09:38:57;;;;;;;81.92;14.95;;;;;;;30.09;34.26;99447.03;1751367;82;21527;-42
2022/08/23 09:41:36;;;;;;;91.02;15.18;;;;;;;30.28;34.57;99451.06;1751805;82;20985;-42
2022/08/23 09:44:12;;;;;;;88.10;16.73;;;;;;;30.48;32.99;99448.89;1751362;81;20992;-42
2022/08/23 09:46:41;;;;;;;100.38;14.73;;;;;;;30.60;32.75;99451.30;1751959;82;20942;-42
2022/08/23 09:49:15;;;;;;;;;;;;;;;30.72;32.55;99444.41;1754160;82;21290;-42
2022/08/23 09:51:44;;;;;;;90.10;14.75;;;;;;;30.81;32.05;99450.61;1743391;81;20196;-42
2022/08/23 09:54:34;;;;;;;80.50;14.85;;;;;;;30.82;31.97;99445.15;1751375;81;21022;-42
2022/08/23 09:57:08;;;;;;;86.35;14.80;;;;;;;30.92;32.24;99451.34;1751892;82;21037;-42
2022/08/23 09:59:50;;;;;;;83.78;14.85;;;;;;;31.03;31.78;99459.21;1751537;82;21543;-42
2022/08/23 10:02:29;;;;;;;83.67;14.38;;;;;;;31.18;31.60;99452.73;1751708;81;21040;-43
2022/08/23 10:05:03;;;;;;;74.72;13.83;;;;;;;31.33;31.39;99454.09;1732683;82;21042;-42
2022/08/23 10:07:43;;;;;;;73.02;13.60;;;;;;;31.50;29.27;99449.38;1751554;82;21524;-42
2022/08/23 10:10:24;;;;;;;70.12;11.95;;;;;;;31.53;28.52;99457.40;1751621;82;21020;-42
2022/08/23 10:12:53;;;;;;;64.85;11.57;;;;;;;31.53;28.76;99463.64;1748510;82;20934;-42
2022/08/23 10:15:24;;;;;;;63.85;11.48;;;;;;;31.56;28.50;99468.26;1732998;82;21231;-42
2022/08/23 10:18:08;;;;;;;48.63;9.60;;;;;;;31.59;28.46;99460.27;1743732;81;21053;-43
2022/08/23 10:20:56;;;;;;;52.62;9.98;;;;;;;31.63;28.35;99455.96;1732682;82;20977;-42
2022/08/23 10:23:47;;;;;;;58.78;10.78;;;;;;;31.76;28.52;99461.11;1743041;81;21009;-42
2022/08/23 10:26:30;;;;;;;53.10;10.23;;;;;;;31.93;27.91;99459.17;1743414;82;21512;-43
2022/08/23 10:29:39;;;;;;;44.58;10.53;;;;;;;32.09;27.68;99457.08;1732668;82;21141;-42
2022/08/23 10:32:21;;;;;;;38.98;8.68;;;;;;;32.20;27.27;99459.93;1743360;82;20962;-42
2022/08/23 10:35:21;;;;;;;47.73;9.28;;;;;;;32.33;27.35;99453.87;1743214;81;21022;-42
2022/08/23 10:38:26;;;;;;;48.60;9.28;;;;;;;32.51;27.46;99455.43;1707679;84;21084;-43
2022/08/23 10:41:12;;;;;;;48.08;8.95;;;;;;;32.68;27.56;99456.23;1707108;84;21033;-42
2022/08/23 10:44:02;;;;;;;43.98;8.98;;;;;;;32.91;27.62;99459.22;1743531;82;21128;-42
2022/08/23 10:46:31;;;;;;;49.13;8.73;;;;;;;33.09;27.20;99458.70;1702852;81;21484;-43
2022/08/23 10:48:59;;;;;;;37.55;8.58;;;;;;;33.22;26.30;99460.23;1743471;81;21819;-43
2022/08/23 10:51:35;;;;;;;40.35;7.92;;;;;;;33.33;25.84;99457.41;1743603;82;21037;-42
2022/08/23 10:54:07;;;;;;;29.55;6.50;;;;;;;33.43;24.92;99448.84;1743620;82;21029;-42
2022/08/23 10:56:37;;;;;;;32.05;6.95;;;;;;;33.54;25.29;99446.78;1733436;82;21104;-43
2022/08/23 10:59:22;;;;;;;45.08;6.55;;;;;;;33.70;24.50;99450.84;1707680;84;21001;-42
2022/08/23 11:01:55;;;;;;;28.98;5.22;;;;;;;33.84;23.97;99449.76;1743858;82;20977;-42
2022/08/23 11:04:52;;;;;;;20.30;4.58;;;;;;;33.94;23.06;99451.64;1743469;82;21065;-42
2022/08/23 11:07:28;;;;;;;24.63;4.50;;;;;;;34.05;23.47;99461.45;1743376;81;21030;-43
2022/08/23 11:10:18;;;;;;;17.60;4.08;;;;;;;34.34;23.12;99458.64;1707441;84;21584;-43
2022/08/23 11:13:07;;;;;;;18.02;4.47;;;;;;;34.66;22.62;99456.92;1673822;83;21040;-43
2022/08/23 11:16:10;;;;;;;21.25;3.75;;;;;;;34.98;22.19;99460.02;1750477;81;20930;-43
2022/08/23 11:18:45;;;;;;;17.40;3.30;;;;;;;35.17;20.48;99447.46;1751300;81;21429;-43
2022/08/23 11:21:32;;;;;;;14.25;3.25;;;;;;;35.11;20.08;99460.80;1715590;83;21025;-43
2022/08/23 11:24:05;;;;;;;15.25;3.47;;;;;;;34.87;19.93;99462.28;1715207;83;22121;-43
2022/08/23 11:26:45;;;;;;;18.40;3.80;;;;;;;34.67;20.34;99465.50;1748796;82;20934;-43
2022/08/23 11:29:25;;;;;;;15.03;3.65;;;;;;;34.60;20.92;99463.88;1710718;83;20956;-43
2022/08/23 11:32:18;;;;;;;13.03;3.67;;;;;;;34.75;21.05;99467.89;1713380;83;21187;-43
2022/08/23 11:34:55;;;;;;;16.15;3.40;;;;;;;35.03;21.50;99471.12;1707105;83;21049;-43
2022/08/23 11:37:26;;;;;;;16.65;3.60;;;;;;;35.33;20.33;99471.15;1751490;81;21236;-43
2022/08/23 11:40:03;;;;;;;14.07;3.58;;;;;;;35.49;20.48;99475.20;1751344;81;21498;-43
2022/08/23 11:42:42;;;;;;;10.55;2.90;;;;;;;35.69;20.13;99467.70;1715644;83;21056;-43
2022/08/23 11:45:32;;;;;;;12.53;3.33;;;;;;;35.83;19.67;99472.03;1751391;82;21034;-43
2022/08/23 11:48:36;;;;;;;10.85;3.15;;;;;;;35.87;19.86;99485.22;1751157;81;21041;-43
2022/08/23 11:51:27;;;;;;;19.62;3.72;;;;;;;35.93;19.81;99481.02;1751223;81;23148;-43
2022/08/23 11:54:03;;;;;;;12.50;3.20;;;;;;;35.79;19.64;99482.22;1703293;81;20965;-43
2022/08/23 11:56:56;;;;;;;9.50;3.25;;;;;;;35.69;20.26;99476.17;1751026;81;20969;-43
2022/08/23 11:59:51;;;;;;;9.05;2.98;;;;;;;35.82;19.73;99476.17;1751165;81;21017;-43
2022/08/23 12:03:00;;;;;;;14.40;3.22;;;;;;;36.00;19.52;99484.67;1751258;82;21091;-43